createdAt,value
2023-04-20T00:00:11.334Z,102132.22
2023-04-20T00:02:42.074Z,102118.19
2023-04-20T00:05:11.895Z,102121.63
2023-04-20T00:07:41.507Z,102118.06
2023-04-20T00:10:09.386Z,102119.75
2023-04-20T00:12:36.736Z,102112.72
2023-04-20T00:15:04.723Z,102096.97
2023-04-20T00:17:32.139Z,102098.63
2023-04-20T00:19:59.274Z,102091.59
2023-04-20T00:22:28.244Z,102085.44
2023-04-20T00:24:55.277Z,102079.25
2023-04-20T00:27:22.482Z,102074.81
2023-04-20T00:29:49.557Z,102078.28
2023-04-20T00:32:16.730Z,102076.50
2023-04-20T00:34:43.958Z,102066.81
2023-04-20T00:37:11.640Z,102063.25
2023-04-20T00:39:38.634Z,102064.13
2023-04-20T00:42:08.283Z,102062.31
2023-04-20T00:44:35.988Z,102056.19
2023-04-20T00:47:03.100Z,102052.66
2023-04-20T00:49:31.992Z,102047.41
2023-04-20T00:52:00.170Z,102040.31
2023-04-20T00:54:30.000Z,102047.28
2023-04-20T00:56:59.631Z,102030.63
2023-04-20T00:59:27.075Z,102017.50
2023-04-20T01:01:54.406Z,102007.88
2023-04-20T01:04:21.955Z,102014.84
2023-04-20T01:06:49.126Z,102013.09
2023-04-20T01:09:16.522Z,102006.91
2023-04-20T01:11:45.025Z,102009.53
2023-04-20T01:14:16.745Z,102000.69
2023-04-20T01:16:44.979Z,102006.75
2023-04-20T01:19:13.299Z,101999.69
2023-04-20T01:21:40.845Z,101988.34
2023-04-20T01:24:08.298Z,101986.53
2023-04-20T01:26:35.501Z,101982.13
2023-04-20T01:29:02.532Z,101971.59
2023-04-20T01:31:29.719Z,101969.91
2023-04-20T01:33:58.698Z,101964.66
2023-04-20T01:36:25.777Z,101964.72
2023-04-20T01:38:53.106Z,101959.44
2023-04-20T01:41:21.458Z,101951.53
2023-04-20T01:43:49.106Z,101948.88
2023-04-20T01:46:16.259Z,101945.38
2023-04-20T01:48:43.271Z,101943.66
2023-04-20T01:51:10.248Z,101945.41
2023-04-20T01:53:37.191Z,101944.56
2023-04-20T01:56:04.580Z,101935.03
2023-04-20T01:58:31.705Z,101930.72
2023-04-20T02:01:01.500Z,101930.75
2023-04-20T02:03:29.257Z,101932.53
2023-04-20T02:05:56.555Z,101936.00
2023-04-20T02:08:27.399Z,101944.75
2023-04-20T02:10:54.461Z,101941.25
2023-04-20T02:13:21.540Z,101931.66
2023-04-20T02:15:48.592Z,101929.88
2023-04-20T02:18:16.271Z,101930.84
2023-04-20T02:20:45.517Z,101932.63
2023-04-20T02:23:13.030Z,101924.84
2023-04-20T02:25:40.031Z,101927.50
2023-04-20T02:28:07.103Z,101913.59
2023-04-20T02:30:34.166Z,101908.38
2023-04-20T02:33:01.388Z,101913.69
2023-04-20T02:35:28.461Z,101916.28
2023-04-20T02:37:55.781Z,101908.47
2023-04-20T02:40:22.856Z,101908.56
2023-04-20T02:42:50.256Z,101903.34
2023-04-20T02:45:17.585Z,101902.53
2023-04-20T02:47:47.245Z,101893.88
2023-04-20T02:50:15.298Z,101890.44
2023-04-20T02:53:02.595Z,101884.34
2023-04-20T02:55:32.842Z,101878.22
2023-04-20T02:58:04.721Z,101877.41
2023-04-20T03:00:52.119Z,101874.81
2023-04-20T03:03:21.317Z,101871.34
2023-04-20T03:05:49.278Z,101860.88
2023-04-20T03:08:16.960Z,101867.06
2023-04-20T03:10:46.214Z,101860.09
2023-04-20T03:13:20.296Z,101864.47
2023-04-20T03:16:00.660Z,101855.78
2023-04-20T03:18:35.342Z,101852.34
2023-04-20T03:21:02.438Z,101856.72
2023-04-20T03:23:31.592Z,101848.00
2023-04-20T03:26:01.635Z,101842.78
2023-04-20T03:28:57.131Z,101840.19
2023-04-20T03:31:26.410Z,101845.47
2023-04-20T03:33:55.922Z,101841.97
2023-04-20T03:36:23.218Z,101833.25
2023-04-20T03:38:50.242Z,101836.75
2023-04-20T03:41:17.265Z,101838.47
2023-04-20T03:43:44.334Z,101839.38
2023-04-20T03:46:11.489Z,101837.63
2023-04-20T03:48:38.653Z,101829.78
2023-04-20T03:51:06.112Z,101833.25
2023-04-20T03:53:33.134Z,101835.88
2023-04-20T03:56:00.974Z,101832.38
2023-04-20T03:58:28.460Z,101835.03
2023-04-20T04:01:07.834Z,101814.91
2023-04-20T04:03:37.499Z,101806.19
2023-04-20T04:06:04.964Z,101800.94
2023-04-20T04:08:33.602Z,101808.81
2023-04-20T04:11:01.076Z,101807.06
2023-04-20T04:13:47.750Z,101796.59
2023-04-20T04:16:34.888Z,101799.19
2023-04-20T04:19:21.914Z,101789.59
2023-04-20T04:22:08.643Z,101786.97
2023-04-20T04:25:01.454Z,101783.47
2023-04-20T04:27:49.514Z,101788.69
2023-04-20T04:30:39.079Z,101778.22
2023-04-20T04:33:27.779Z,101769.47
2023-04-20T04:36:15.384Z,101773.00
2023-04-20T04:39:02.333Z,101767.72
2023-04-20T04:41:49.727Z,101777.34
2023-04-20T04:44:45.045Z,101773.84
2023-04-20T04:47:36.926Z,101772.09
2023-04-20T04:50:23.598Z,101768.59
2023-04-20T04:53:11.576Z,101765.09
2023-04-20T04:55:58.288Z,101765.09
2023-04-20T04:58:47.279Z,101762.47
2023-04-20T05:01:36.083Z,101772.09
2023-04-20T05:04:23.177Z,101772.09
2023-04-20T05:07:10.493Z,101767.69
2023-04-20T05:09:57.151Z,101771.19
2023-04-20T05:12:44.574Z,101769.41
2023-04-20T05:15:31.392Z,101766.81
2023-04-20T05:18:18.123Z,101765.06
2023-04-20T05:20:45.134Z,101762.44
2023-04-20T05:23:12.361Z,101773.78
2023-04-20T05:25:39.465Z,101758.91
2023-04-20T05:28:08.678Z,101763.28
2023-04-20T05:30:46.432Z,101758.00
2023-04-20T05:33:13.393Z,101755.41
2023-04-20T05:35:41.092Z,101752.75
2023-04-20T05:38:08.136Z,101757.94
2023-04-20T05:40:35.445Z,101752.69
2023-04-20T05:43:02.691Z,101757.88
2023-04-20T05:45:29.834Z,101752.50
2023-04-20T05:47:57.712Z,101751.56
2023-04-20T05:50:26.646Z,101761.22
2023-04-20T05:52:54.227Z,101763.84
2023-04-20T05:55:22.792Z,101765.63
2023-04-20T05:57:52.253Z,101758.66
2023-04-20T06:00:21.177Z,101759.50
2023-04-20T06:02:49.111Z,101770.03
2023-04-20T06:05:16.425Z,101763.06
2023-04-20T06:07:43.470Z,101764.00
2023-04-20T06:10:11.017Z,101763.97
2023-04-20T06:12:38.173Z,101768.41
2023-04-20T06:15:10.751Z,101769.28
2023-04-20T06:17:40.667Z,101764.03
2023-04-20T06:20:10.559Z,101760.47
2023-04-20T06:22:47.090Z,101759.59
2023-04-20T06:25:15.712Z,101753.47
2023-04-20T06:27:42.993Z,101750.88
2023-04-20T06:30:11.356Z,101759.66
2023-04-20T06:32:38.535Z,101767.47
2023-04-20T06:35:07.193Z,101753.50
2023-04-20T06:37:36.192Z,101761.41
2023-04-20T06:40:10.633Z,101768.44
2023-04-20T06:42:37.917Z,101764.06
2023-04-20T06:45:07.131Z,101758.81
2023-04-20T06:47:34.800Z,101764.06
2023-04-20T06:50:10.320Z,101756.16
2023-04-20T06:52:38.641Z,101757.94
2023-04-20T06:55:06.402Z,101752.69
2023-04-20T06:57:33.431Z,101754.44
2023-04-20T07:00:00.508Z,101745.53
2023-04-20T07:02:27.985Z,101744.50
2023-04-20T07:05:01.891Z,101741.69
2023-04-20T07:07:29.014Z,101748.69
2023-04-20T07:09:56.027Z,101731.22
2023-04-20T07:12:22.994Z,101735.69
2023-04-20T07:14:50.019Z,101748.81
2023-04-20T07:17:16.985Z,101738.19
2023-04-20T07:19:43.970Z,101734.69
2023-04-20T07:22:10.927Z,101732.84
2023-04-20T07:24:37.984Z,101722.22
2023-04-20T07:27:05.713Z,101736.09
2023-04-20T07:29:34.008Z,101739.63
2023-04-20T07:32:01.223Z,101728.25
2023-04-20T07:34:28.277Z,101738.75
2023-04-20T07:36:55.261Z,101746.66
2023-04-20T07:39:22.278Z,101736.78
2023-04-20T07:41:49.228Z,101740.31
2023-04-20T07:44:16.184Z,101747.31
2023-04-20T07:46:43.157Z,101736.72
2023-04-20T07:49:10.155Z,101736.88
2023-04-20T07:51:37.104Z,101735.25
2023-04-20T07:54:04.255Z,101736.13
2023-04-20T07:56:32.142Z,101741.38
2023-04-20T07:58:59.185Z,101741.34
2023-04-20T08:01:26.413Z,101744.06
2023-04-20T08:03:55.742Z,101739.53
2023-04-20T08:06:23.123Z,101732.31
2023-04-20T08:08:50.076Z,101735.69
2023-04-20T08:11:17.075Z,101748.69
2023-04-20T08:13:44.123Z,101735.31
2023-04-20T08:16:11.243Z,101731.84
2023-04-20T08:18:38.335Z,101737.09
2023-04-20T08:21:05.402Z,101721.31
2023-04-20T08:23:32.393Z,101728.44
2023-04-20T08:25:59.528Z,101732.94
2023-04-20T08:28:33.385Z,101726.06
2023-04-20T08:31:01.840Z,101727.84
2023-04-20T08:33:28.873Z,101720.78
2023-04-20T08:35:56.057Z,101722.28
2023-04-20T08:38:33.456Z,101716.91
2023-04-20T08:41:02.138Z,101722.16
2023-04-20T08:43:29.648Z,101716.03
2023-04-20T08:46:04.643Z,101719.50
2023-04-20T08:48:37.086Z,101722.09
2023-04-20T08:51:06.129Z,101716.84
2023-04-20T08:53:33.669Z,101711.78
2023-04-20T08:56:00.847Z,101716.28
2023-04-20T08:58:32.869Z,101712.94
2023-04-20T09:01:02.855Z,101724.31
2023-04-20T09:03:36.172Z,101711.94
2023-04-20T09:06:05.878Z,101716.16
2023-04-20T09:08:42.136Z,101715.25
2023-04-20T09:11:26.999Z,101713.63
2023-04-20T09:14:06.698Z,101711.91
2023-04-20T09:16:37.595Z,101712.00
2023-04-20T09:19:04.867Z,101717.25
2023-04-20T09:21:32.662Z,101714.72
2023-04-20T09:24:03.414Z,101710.41
2023-04-20T09:26:35.714Z,101700.78
2023-04-20T09:29:04.501Z,101703.53
2023-04-20T09:31:31.455Z,101698.31
2023-04-20T09:34:07.655Z,101697.59
2023-04-20T09:36:42.124Z,101700.25
2023-04-20T09:39:16.580Z,101700.19
2023-04-20T09:41:44.366Z,101703.50
2023-04-20T09:46:52.854Z,101703.72
2023-04-20T09:49:21.363Z,101701.81
2023-04-20T09:51:49.503Z,101689.47
2023-04-20T09:54:16.830Z,101685.91
2023-04-20T09:56:45.480Z,101694.63
2023-04-20T09:59:13.459Z,101681.56
2023-04-20T10:01:40.921Z,101693.16
2023-04-20T10:04:11.073Z,101681.75
2023-04-20T10:06:38.948Z,101682.53
2023-04-20T10:09:08.790Z,101675.56
2023-04-20T10:11:52.455Z,101680.09
2023-04-20T10:14:23.825Z,101673.00
2023-04-20T10:17:05.247Z,101665.78
2023-04-20T10:19:44.144Z,101667.22
2023-04-20T10:22:25.241Z,101659.78
2023-04-20T10:24:52.230Z,101662.19
2023-04-20T10:27:22.034Z,101648.22
2023-04-20T10:29:49.380Z,101651.47
2023-04-20T10:32:27.455Z,101649.69
2023-04-20T10:35:10.786Z,101640.03
2023-04-20T10:37:50.780Z,101654.16
2023-04-20T10:40:28.938Z,101648.91
2023-04-20T10:42:55.976Z,101636.69
2023-04-20T10:45:35.708Z,101638.22
2023-04-20T10:48:10.374Z,101637.31
2023-04-20T10:50:37.681Z,101637.47
2023-04-20T10:53:05.417Z,101631.31
2023-04-20T10:55:32.558Z,101621.47
2023-04-20T10:57:59.770Z,101623.97
2023-04-20T11:00:29.595Z,101626.09
2023-04-20T11:02:57.549Z,101623.00
2023-04-20T11:05:27.677Z,101623.13
2023-04-20T11:07:57.819Z,101618.84
2023-04-20T11:10:42.227Z,101622.66
2023-04-20T11:13:30.739Z,101626.41
2023-04-20T11:15:57.806Z,101618.66
2023-04-20T11:18:24.900Z,101606.66
2023-04-20T11:20:56.176Z,101612.97
2023-04-20T11:23:27.445Z,101616.69
2023-04-20T11:25:57.007Z,101612.00
2023-04-20T11:28:25.901Z,101622.03
2023-04-20T11:30:52.874Z,101609.16
2023-04-20T11:33:31.398Z,101615.47
2023-04-20T11:35:59.865Z,101615.47
2023-04-20T11:38:33.256Z,101613.72
2023-04-20T11:41:04.728Z,101630.34
2023-04-20T11:43:32.554Z,101648.00
2023-04-20T11:46:01.090Z,101617.47
2023-04-20T11:48:31.470Z,101616.66
2023-04-20T11:50:58.851Z,101607.91
2023-04-20T11:53:25.942Z,101600.75
2023-04-20T11:55:52.892Z,101597.81
2023-04-20T11:58:19.915Z,101587.56
2023-04-20T12:00:46.847Z,101591.50
2023-04-20T12:03:14.036Z,101590.03
2023-04-20T12:05:43.278Z,101582.53
2023-04-20T12:08:10.369Z,101578.50
2023-04-20T12:10:37.392Z,101576.94
2023-04-20T12:13:04.373Z,101571.63
2023-04-20T12:15:31.984Z,101569.97
2023-04-20T12:17:59.162Z,101575.34
2023-04-20T12:20:26.412Z,101572.31
2023-04-20T12:22:53.393Z,101580.78
2023-04-20T12:25:20.580Z,101572.66
2023-04-20T12:27:48.816Z,101568.03
2023-04-20T12:30:17.023Z,101573.03
2023-04-20T12:32:44.129Z,101566.81
2023-04-20T12:35:11.368Z,101568.56
2023-04-20T12:37:38.408Z,101563.16
2023-04-20T12:40:07.413Z,101568.28
2023-04-20T12:42:34.446Z,101563.78
2023-04-20T12:45:01.858Z,101565.94
2023-04-20T12:47:28.898Z,101553.69
2023-04-20T12:49:56.252Z,101568.31
2023-04-20T12:52:23.391Z,101564.28
2023-04-20T12:54:50.541Z,101561.38
2023-04-20T12:57:17.624Z,101558.59
2023-04-20T12:59:44.627Z,101560.56
2023-04-20T13:02:11.997Z,101556.19
2023-04-20T13:04:39.220Z,101565.09
2023-04-20T13:07:07.085Z,101553.69
2023-04-20T13:09:34.477Z,101548.94
2023-04-20T13:12:01.702Z,101535.69
2023-04-20T13:14:28.736Z,101547.19
2023-04-20T13:16:56.121Z,101544.00
2023-04-20T13:19:23.205Z,101549.00
2023-04-20T13:21:50.222Z,101546.00
2023-04-20T13:24:17.445Z,101542.78
2023-04-20T13:26:44.721Z,101540.94
2023-04-20T13:29:11.848Z,101534.66
2023-04-20T13:31:40.612Z,101534.38
2023-04-20T13:34:07.801Z,101533.16
2023-04-20T13:36:34.859Z,101524.09
2023-04-20T13:39:02.135Z,101525.75
2023-04-20T13:41:29.145Z,101531.69
2023-04-20T13:44:00.083Z,101528.66
2023-04-20T13:46:27.826Z,101525.06
2023-04-20T13:48:54.972Z,101528.09
2023-04-20T13:51:21.959Z,101524.97
2023-04-20T13:53:49.000Z,101518.03
2023-04-20T13:56:16.752Z,101505.41
2023-04-20T13:58:44.185Z,101504.41
2023-04-20T14:01:13.114Z,101509.03
2023-04-20T14:03:42.135Z,101510.75
2023-04-20T14:06:09.229Z,101518.13
2023-04-20T14:08:36.301Z,101516.63
2023-04-20T14:11:03.424Z,101509.88
2023-04-20T14:13:30.435Z,101500.53
2023-04-20T14:15:58.797Z,101491.16
2023-04-20T14:18:25.794Z,101484.94
2023-04-20T14:20:52.733Z,101482.72
2023-04-20T14:23:19.718Z,101490.09
2023-04-20T14:25:46.833Z,101493.81
2023-04-20T14:28:16.710Z,101495.22
2023-04-20T14:30:47.190Z,101486.78
2023-04-20T14:33:14.145Z,101499.44
2023-04-20T14:35:41.256Z,101486.75
2023-04-20T14:38:08.891Z,101491.16
2023-04-20T14:40:35.969Z,101494.38
2023-04-20T14:43:03.071Z,101501.78
2023-04-20T14:45:30.197Z,101496.97
2023-04-20T14:47:57.511Z,101501.72
2023-04-20T14:50:29.837Z,101499.69
2023-04-20T14:52:56.878Z,101495.00
2023-04-20T14:55:25.989Z,101499.00
2023-04-20T14:57:57.667Z,101498.75
2023-04-20T15:00:28.345Z,101485.41
2023-04-20T15:02:56.920Z,101494.69
2023-04-20T15:05:26.825Z,101482.81
2023-04-20T15:07:54.075Z,101476.78
2023-04-20T15:10:21.598Z,101482.69
2023-04-20T15:12:48.641Z,101475.28
2023-04-20T15:15:17.325Z,101491.25
2023-04-20T15:17:46.808Z,101485.88
2023-04-20T15:20:17.563Z,101478.25
2023-04-20T15:22:44.586Z,101468.84
2023-04-20T15:25:12.156Z,101467.50
2023-04-20T15:27:39.247Z,101474.16
2023-04-20T15:30:07.874Z,101469.22
2023-04-20T15:32:34.860Z,101465.44
2023-04-20T15:35:02.557Z,101472.44
2023-04-20T15:37:29.700Z,101466.84
2023-04-20T15:39:56.806Z,101453.81
2023-04-20T15:42:23.839Z,101466.41
2023-04-20T15:44:50.788Z,101459.28
2023-04-20T15:47:17.787Z,101459.75
2023-04-20T15:49:44.897Z,101469.88
2023-04-20T15:52:12.006Z,101468.28
2023-04-20T15:54:39.019Z,101471.53
2023-04-20T15:57:06.067Z,101467.81
2023-04-20T15:59:33.113Z,101470.69
2023-04-20T16:02:00.135Z,101472.44
2023-04-20T16:04:27.291Z,101466.22
2023-04-20T16:06:55.367Z,101472.19
2023-04-20T16:09:23.731Z,101470.44
2023-04-20T16:11:51.136Z,101468.94
2023-04-20T16:14:18.753Z,101462.38
2023-04-20T16:16:45.954Z,101458.28
2023-04-20T16:19:16.110Z,101472.69
2023-04-20T16:21:43.182Z,101478.63
2023-04-20T16:24:10.196Z,101474.31
2023-04-20T16:26:38.998Z,101476.81
2023-04-20T16:29:07.165Z,101474.53
2023-04-20T16:31:36.661Z,101477.63
2023-04-20T16:34:04.424Z,101483.78
2023-04-20T16:36:32.112Z,101479.69
2023-04-20T16:39:01.782Z,101479.97
2023-04-20T16:41:28.740Z,101478.69
2023-04-20T16:43:56.111Z,101468.16
2023-04-20T16:46:23.193Z,101471.81
2023-04-20T16:48:50.931Z,101471.88
2023-04-20T16:51:17.916Z,101466.81
2023-04-20T16:53:45.366Z,101474.75
2023-04-20T16:56:12.715Z,101481.09
2023-04-20T16:58:39.711Z,101459.28
2023-04-20T17:01:08.033Z,101474.41
2023-04-20T17:03:35.283Z,101470.38
2023-04-20T17:06:07.392Z,101466.44
2023-04-20T17:08:34.696Z,101469.41
2023-04-20T17:11:01.968Z,101471.19
2023-04-20T17:13:29.139Z,101459.09
2023-04-20T17:15:56.720Z,101469.56
2023-04-20T17:18:24.247Z,101469.53
2023-04-20T17:20:52.216Z,101470.47
2023-04-20T17:23:19.668Z,101476.69
2023-04-20T17:25:47.430Z,101478.16
2023-04-20T17:28:14.926Z,101480.44
2023-04-20T17:30:42.027Z,101493.16
2023-04-20T17:33:12.237Z,101522.06
2023-04-20T17:35:39.507Z,101534.22
2023-04-20T17:38:06.856Z,101541.50
2023-04-20T17:40:34.192Z,101525.38
2023-04-20T17:43:02.324Z,101522.28
2023-04-20T17:45:29.360Z,101514.25
2023-04-20T17:47:56.481Z,101514.81
2023-04-20T17:50:23.804Z,101517.84
2023-04-20T17:52:51.620Z,101512.91
2023-04-20T17:55:18.726Z,101509.66
2023-04-20T17:57:45.706Z,101517.69
2023-04-20T18:00:13.509Z,101520.34
2023-04-20T18:02:41.076Z,101521.41
2023-04-20T18:05:08.653Z,101524.09
2023-04-20T18:07:35.840Z,101513.56
2023-04-20T18:10:04.275Z,101514.41
2023-04-20T18:12:31.297Z,101521.31
2023-04-20T18:14:58.298Z,101524.78
2023-04-20T18:17:25.750Z,101519.50
2023-04-20T18:19:52.777Z,101530.84
2023-04-20T18:22:19.814Z,101529.13
2023-04-20T18:24:46.820Z,101527.38
2023-04-20T18:27:13.884Z,101528.28
2023-04-20T18:29:40.871Z,101530.00
2023-04-20T18:32:08.104Z,101525.66
2023-04-20T18:34:35.141Z,101520.41
2023-04-20T18:37:02.167Z,101529.13
2023-04-20T18:39:29.896Z,101537.00
2023-04-20T18:41:56.871Z,101544.84
2023-04-20T18:44:23.900Z,101542.19
2023-04-20T18:46:51.014Z,101543.88
2023-04-20T18:49:18.072Z,101540.31
2023-04-20T18:51:45.118Z,101556.03
2023-04-20T18:54:12.078Z,101562.97
2023-04-20T18:56:39.598Z,101560.25
2023-04-20T18:59:08.455Z,101552.34
2023-04-20T19:01:40.339Z,101559.31
2023-04-20T19:04:08.866Z,101553.13
2023-04-20T19:06:36.179Z,101565.38
2023-04-20T19:09:08.214Z,101566.28
2023-04-20T19:11:35.748Z,101571.53
2023-04-20T19:14:02.705Z,101566.25
2023-04-20T19:16:31.680Z,101569.78
2023-04-20T19:18:59.581Z,101561.84
2023-04-20T19:21:27.083Z,101558.38
2023-04-20T19:23:54.078Z,101559.28
2023-04-20T19:26:21.318Z,101562.81
2023-04-20T19:28:48.405Z,101561.06
2023-04-20T19:31:16.019Z,101556.72
2023-04-20T19:33:43.333Z,101559.38
2023-04-20T19:36:10.330Z,101557.66
2023-04-20T19:38:38.674Z,101557.66
2023-04-20T19:41:06.302Z,101553.28
2023-04-20T19:43:33.561Z,101564.69
2023-04-20T19:46:00.707Z,101563.84
2023-04-20T19:48:31.021Z,101562.13
2023-04-20T19:50:59.167Z,101554.22
2023-04-20T19:53:28.142Z,101555.97
2023-04-20T19:55:55.319Z,101549.84
2023-04-20T19:58:24.377Z,101548.13
2023-04-20T20:00:51.360Z,101539.41
2023-04-20T20:03:18.491Z,101540.31
2023-04-20T20:05:45.585Z,101537.69
2023-04-20T20:08:13.483Z,101538.59
2023-04-20T20:10:40.521Z,101536.81
2023-04-20T20:13:07.477Z,101532.47
2023-04-20T20:15:34.557Z,101535.13
2023-04-20T20:18:01.749Z,101529.03
2023-04-20T20:20:32.304Z,101526.41
2023-04-20T20:23:00.064Z,101527.25
2023-04-20T20:25:27.085Z,101519.41
2023-04-20T20:27:54.545Z,101514.16
2023-04-20T20:30:22.257Z,101516.78
2023-04-20T20:32:49.288Z,101515.09
2023-04-20T20:35:16.412Z,101505.44
2023-04-20T20:37:45.347Z,101508.97
2023-04-20T20:40:15.129Z,101513.34
2023-04-20T20:42:44.973Z,101513.31
2023-04-20T20:45:13.006Z,101508.97
2023-04-20T20:47:44.747Z,101503.75
2023-04-20T20:50:14.667Z,101505.50
2023-04-20T20:52:42.034Z,101501.13
2023-04-20T20:55:10.374Z,101504.59
2023-04-20T20:57:37.637Z,101500.19
2023-04-20T21:00:08.383Z,101498.44
2023-04-20T21:02:36.890Z,101501.06
2023-04-20T21:05:05.754Z,101501.91
2023-04-20T21:07:33.084Z,101489.69
2023-04-20T21:10:00.201Z,101491.41
2023-04-20T21:12:27.169Z,101484.41
2023-04-20T21:14:54.261Z,101493.16
2023-04-20T21:17:21.442Z,101499.22
2023-04-20T21:19:48.430Z,101492.25
2023-04-20T21:22:15.470Z,101500.13
2023-04-20T21:24:42.533Z,101507.16
2023-04-20T21:27:09.915Z,101505.44
2023-04-20T21:29:36.932Z,101515.03
2023-04-20T21:32:04.395Z,101511.59
2023-04-20T21:34:31.449Z,101515.16
2023-04-20T21:37:03.950Z,101517.88
2023-04-20T21:39:32.473Z,101526.75
2023-04-20T21:41:59.940Z,101530.41
2023-04-20T21:44:27.824Z,101529.63
2023-04-20T21:46:54.958Z,101526.19
2023-04-20T21:49:21.948Z,101517.53
2023-04-20T21:51:49.275Z,101520.19
2023-04-20T21:54:16.286Z,101522.88
2023-04-20T21:56:43.313Z,101531.66
2023-04-20T21:59:10.439Z,101527.31
2023-04-20T22:01:37.621Z,101536.06
2023-04-20T22:04:05.140Z,101532.63
2023-04-20T22:06:32.691Z,101527.41
2023-04-20T22:08:59.742Z,101527.41
2023-04-20T22:11:26.821Z,101520.41
2023-04-20T22:13:53.967Z,101521.31
2023-04-20T22:16:23.947Z,101526.56
2023-04-20T22:18:51.351Z,101522.25
2023-04-20T22:21:18.301Z,101512.63
2023-04-20T22:23:45.421Z,101517.88
2023-04-20T22:26:12.410Z,101503.00
2023-04-20T22:28:39.347Z,101503.88
2023-04-20T22:31:06.442Z,101514.38
2023-04-20T22:33:33.530Z,101503.03
2023-04-20T22:36:00.707Z,101504.78
2023-04-20T22:38:27.700Z,101498.66
2023-04-20T22:40:54.782Z,101491.66
2023-04-20T22:43:21.862Z,101486.44
2023-04-20T22:45:48.964Z,101482.94
2023-04-20T22:48:16.085Z,101476.84
2023-04-20T22:50:43.537Z,101468.97
2023-04-20T22:53:10.603Z,101466.38
2023-04-20T22:55:37.596Z,101460.25
2023-04-20T22:58:04.575Z,101444.53
2023-04-20T23:00:31.620Z,101436.66
2023-04-20T23:02:59.128Z,101430.53
2023-04-20T23:05:26.521Z,101436.69
2023-04-20T23:07:53.947Z,101433.19
2023-04-20T23:10:21.265Z,101430.53
2023-04-20T23:12:49.562Z,101427.06
2023-04-20T23:15:16.583Z,101425.31
2023-04-20T23:17:43.728Z,101432.31
2023-04-20T23:20:13.665Z,101431.44
2023-04-20T23:22:41.001Z,101428.81
2023-04-20T23:25:09.791Z,101434.03
2023-04-20T23:27:36.987Z,101440.16
2023-04-20T23:30:04.662Z,101441.91
2023-04-20T23:32:31.682Z,101449.75
2023-04-20T23:34:58.710Z,101449.78
2023-04-20T23:37:25.654Z,101434.97
2023-04-20T23:39:52.670Z,101433.19
2023-04-20T23:42:19.638Z,101436.69
2023-04-20T23:44:46.609Z,101428.84
2023-04-20T23:47:15.473Z,101435.81
2023-04-20T23:49:42.489Z,101429.72
2023-04-20T23:52:09.548Z,101424.47
2023-04-20T23:54:36.541Z,101431.47
2023-04-20T23:57:03.607Z,101413.13
2023-04-20T23:59:31.210Z,101420.13
